South Reno (Wolf Run), Nevada Weather observations

Data are for observation ending at time listed.
 Day   Time    Ave.   Ave.  Ave.  Vector   Max.   Stn.    Total    Solar   Ave.  
  of    of     Air    Rel.  Wind   Wind    Wind   Baro.  Precip.   Rad.    Soil  
Year   Day     Temp.  Hum.  Speed  Dir.    Gust   Pres.                    Temp. 
2014   (PST)    F      %     mph   deg.    mph     mb.     in.     W/m2     F   
------------------------------------------------------------------------------
 208    8:00   76.8    20    3.7    29      5.6  99999.0    0.00     561    68.1
 208    8:10   76.6    21    3.3    21      5.9  99999.0    0.00     367    68.1
 208    8:20   75.2    22    3.8    23      5.3  99999.0    0.00     410    68.1
 208    8:30   77.2    20    2.4    28      4.7  99999.0    0.00     686    68.1
 208    8:40   77.7    19    1.5   359      4.5  99999.0    0.00     318    68.2
 208    8:50   78.4    18    1.7   356      4.2  99999.0    0.00     592    68.2
 208    9:00   80.4    16    1.4    17      4.1  99999.0    0.00     595    68.3
 208    9:10   78.1    16    2.0    66      4.1  99999.0    0.00     186    68.4
 208    9:20   77.8    18    2.6    54      5.3  99999.0    0.00     428    68.4
 208    9:30   80.3    20    1.8   307      4.7  99999.0    0.00     638    68.5
 208    9:40   81.4    15    3.2    12      6.5  99999.0    0.00     510    68.6
 208    9:50   82.1    13    3.1    65      7.5  99999.0    0.00     731    68.7
 208   10:00   82.3    13    4.2    42      9.9  99999.0    0.00     772    68.8
 208   10:10   82.9    13    4.2    49      8.0  99999.0    0.00     818    68.8
 208   10:20   84.4    13    3.9    49      7.0  99999.0    0.00     827    68.9
 208   10:30   84.8    13    3.2    31      7.1  99999.0    0.00     855    69.0
 208   10:40   84.5    13    3.9   355      8.4  99999.0    0.00     758    69.2
 208   10:50   84.0    13    2.3   348      5.8  99999.0    0.00     575    69.3
 208   11:00   85.6    14    0.9   346      3.5  99999.0    0.00     752    69.4
 208   11:10   87.2    12    2.3    36      6.8  99999.0    0.00    1025    69.5
 208   11:20   88.4    11    2.4    26      6.3  99999.0    0.00     986    69.7
 208   11:30   88.2    10    3.9    36      8.5  99999.0    0.00    1001    69.9
 208   11:40   89.0     9    4.0    19      9.8  99999.0    0.00    1067    70.0
 208   11:50   89.9    10    3.0   345      6.5  99999.0    0.00    1085    70.2
 208   12:00   90.0     8    3.9    15      7.2  99999.0    0.00    1073    70.4
 208   12:10   91.0     8    4.0    37      9.8  99999.0    0.00    1081    70.6
 208   12:20   91.2     8    4.7     3      7.9  99999.0    0.00     881    70.8
 208   12:30   90.3    10    3.4   251      7.3  99999.0    0.00    1056    71.0
 208   12:40   90.9     9    3.8    18      8.6  99999.0    0.00    1013    71.2
 208   12:50   92.4     8    4.3     4     10.2  99999.0    0.00    1022    71.5
 208   13:00   93.0     8    4.1    18      8.8  99999.0    0.00    1017    71.7
 208   13:10   92.9    10    3.7   345      9.7  99999.0    0.00    1049    71.9
 208   13:20   92.5     9    5.8    66      9.7  99999.0    0.00     952    72.1
 208   13:30   91.8     9    4.5    48      8.8  99999.0    0.00     669    72.4
 208   13:40   91.3     9    4.8    34     10.3  99999.0    0.00     359    72.6
 208   13:50   90.5     9    4.4    15     10.6  99999.0    0.00     304    72.9
 208   14:00   90.1    10    4.0   104      9.5  99999.0    0.00     295    73.1
 208   14:10   89.6    11    3.0   314      9.3  99999.0    0.00     300    73.3
 208   14:20   90.3    10    5.4    44     10.2  99999.0    0.00     296    73.5
 208   14:30   90.7     9    5.2    54      9.3  99999.0    0.00     367    73.7
 208   14:40   90.2    10    5.2    46     11.7  99999.0    0.00     278    73.8
 208   14:50   90.3    10    3.3    68      7.4  99999.0    0.00     264    73.9
 208   15:00   89.7    10    4.6   105      7.8  99999.0    0.00     271    74.0
 208   15:10   89.5    11    3.2   106      8.1  99999.0    0.00     266    74.1
 208   15:20   89.3    10    3.1   130      6.8  99999.0    0.00     248    74.2
 208   15:30   89.9    11    1.1   173      3.9  99999.0    0.00     213    74.2
 208   15:40   89.4    11    3.9   187      9.6  99999.0    0.00     194    74.3
 208   15:50   89.2    10    5.9   188     11.9  99999.0    0.00     205    74.3
 208   16:00   89.2    10    5.2   207      9.3  99999.0    0.00     225    74.4
 208   16:10   89.8    11    2.9   314      7.4  99999.0    0.00     280    74.4
 208   16:20   90.8    12    5.3   340     11.5  99999.0    0.00     487    74.4
 208   16:30   91.0    12    8.8   314     18.1  99999.0    0.00     406    74.4
 208   16:40   89.0    12    9.9   312     15.5  99999.0    0.00     291    74.4
 208   16:50   88.2    13    8.6   312     17.1  99999.0    0.00     174    74.4
 208   17:00   87.6    13    8.3   310     17.3  99999.0    0.00     171    74.5
 208   17:10   88.0    13    5.9   308     13.2  99999.0    0.00     180    74.5
 208   17:20   87.3    14    2.9   289      9.8  99999.0    0.00     121    74.5
 208   17:30   86.3    14    3.8   284     12.9  99999.0    0.00     127    74.5
 208   17:40   86.7    14    3.5   274     11.0  99999.0    0.00     234    74.5
 208   17:50   87.2    14    2.3   264      9.2  99999.0    0.00     127    74.5
 208   18:00   86.1    14    3.3   258     12.8  99999.0    0.00      69    74.4
 208   18:10   85.3    14    2.8   258      7.6  99999.0    0.00      37    74.4
 208   18:20   85.0    14    1.4   258      6.1  99999.0    0.00      36    74.4
 208   18:30   85.0    14    1.8   266     10.3  99999.0    0.00      43    74.4
 208   18:40   84.6    13    2.6   326      8.5  99999.0    0.00      31    74.3
 208   18:50   84.7    14    3.8    14      6.1  99999.0    0.00      29    74.3
 208   19:00   83.3    14    2.2   332      5.3  99999.0    0.00      18    74.2
 208   19:10   83.1    14    1.8   336      5.6  99999.0    0.00       9    74.2
 208   19:20   83.0    14    1.7   344      4.9  99999.0    0.00       5    74.2
 208   19:30   81.8    15    1.1   205      5.1  99999.0    0.00       2    74.1
 208   19:40   81.3    15    0.6   237      3.3  99999.0    0.00       0    74.0
 208   19:50   81.8    14    2.0    11      4.2  99999.0    0.00       0    74.0
 208   20:00   80.4    18    0.5   306      3.4  99999.0    0.00       0    73.9
 208   20:10   78.3    18    1.6   249      5.8  99999.0    0.00       0    73.9
 208   20:20   78.2    18    6.2   246      9.9  99999.0    0.00       0    73.8
 208   20:30   78.5    18    3.4   252     11.2  99999.0    0.00       0    73.8
 208   20:40   77.3    19    2.6   217      6.0  99999.0    0.00       0    73.7
 208   20:50   76.3    21    1.9   334      5.7  99999.0    0.00       0    73.6
 208   21:00   75.0    23    1.1   255      5.8  99999.0    0.00       0    73.6
 208   21:10   73.3    25    4.0   240      7.2  99999.0    0.00       0    73.5
 208   21:20   73.2    25    0.0   266      0.6  99999.0    0.00       0    73.5
 208   21:30   73.0    25    3.1   244      7.6  99999.0    0.00       0    73.4
 208   21:40   74.4    22    7.7   239     10.7  99999.0    0.00       0    73.3
 208   21:50   75.5    22    8.0   249     12.1  99999.0    0.00       0    73.2
 208   22:00   75.5    22    5.9   250      9.8  99999.0    0.00       0    73.2
 208   22:10   74.7    22    0.4    94      2.7  99999.0    0.00       0    73.1
 208   22:20   74.9    21    1.4    96      3.5  99999.0    0.00       0    73.0
 208   22:30   75.9    20    2.6   273      8.4  99999.0    0.00       0    73.0
 208   22:40   74.0    23    4.8   237      7.2  99999.0    0.00       0    72.9
 208   22:50   71.8    25    4.2   229      6.2  99999.0    0.00       0    72.8
 208   23:00   71.2    25    2.1   243      4.0  99999.0    0.00       0    72.7
 208   23:10   71.2    26    2.2   234      3.7  99999.0    0.00       0    72.6
 208   23:20   70.8    26    4.7   230      6.1  99999.0    0.00       0    72.6
 208   23:30   70.9    25    5.9   234      7.8  99999.0    0.00       0    72.5
 208   23:40   70.2    26    4.0   230      5.6  99999.0    0.00       0    72.4
 208   23:50   70.0    26    4.0   226      6.5  99999.0    0.00       0    72.3
 209    0:00   68.5    28    3.4   227      4.3  99999.0    0.00       0    72.3
 209    0:10   67.8    29    2.7   228      4.1  99999.0    0.00       0    72.2
 209    0:20   66.9    29    3.2   237      4.1  99999.0    0.00       0    72.1
 209    0:30   67.4    28    4.9   225      6.9  99999.0    0.00       0    72.1
 209    0:40   68.2    27    4.2   228      6.5  99999.0    0.00       0    72.0
 209    0:50   67.8    27    4.7   229      6.7  99999.0    0.00       0    71.9
 209    1:00   67.6    28    5.1   224      6.9  99999.0    0.00       0    71.8
 209    1:10   68.5    27    5.2   222      7.4  99999.0    0.00       0    71.8
 209    1:20   66.6    33    4.5   227      6.7  99999.0    0.00       0    71.7
 209    1:30   64.8    32    5.2   224      7.5  99999.0    0.00       0    71.6
 209    1:40   67.2    28    5.2   222      6.4  99999.0    0.00       0    71.5
 209    1:50   66.7    29    5.0   229      6.5  99999.0    0.00       0    71.4
 209    2:00   64.4    35    4.3   223      6.0  99999.0    0.00       0    71.3
 209    2:10   65.2    32    2.1   213      5.0  99999.0    0.00       0    71.2
 209    2:20   64.8    32    4.3   230      7.2  99999.0    0.00       0    71.1
 209    2:30   65.2    30    4.4   233      7.4  99999.0    0.00       0    70.9
 209    2:40   65.9    30    6.5   238      9.0  99999.0    0.00       0    70.8
 209    2:50   66.9    28    6.1   241      8.7  99999.0    0.00       0    70.7
 209    3:00   67.0    28    5.5   238      8.3  99999.0    0.00       0    70.6
 209    3:10   66.8    28    5.2   230      7.8  99999.0    0.00       0    70.5
 209    3:20   67.2    27    4.9   227      7.5  99999.0    0.00       0    70.4
 209    3:30   66.2    28    3.2   228      5.3  99999.0    0.00       0    70.3
 209    3:40   66.3    28    4.3   216      8.0  99999.0    0.00       0    70.2
 209    3:50   67.4    27    5.5   229      8.5  99999.0    0.00       0    70.1
 209    4:00   66.1    28    5.2   238      7.5  99999.0    0.00       0    70.0
 209    4:10   67.2    27    5.1   231      7.5  99999.0    0.00       0    70.0
 209    4:20   66.4    28    3.7   247      6.2  99999.0    0.00       0    69.9
 209    4:30   65.7    30    3.6   248      6.8  99999.0    0.00       0    69.8
 209    4:40   64.5    30    2.0   251      4.8  99999.0    0.00       0    69.7
 209    4:50   64.1    30    1.8   252      4.6  99999.0    0.00       1    69.7
 209    5:00   64.4    29    2.4   243      4.3  99999.0    0.00       3    69.6
 209    5:10   64.5    29    3.2   243      6.7  99999.0    0.00      11    69.5
 209    5:20   63.6    31    3.4   245      5.3  99999.0    0.00      19    69.5
 209    5:30   62.9    32    3.4   238      5.4  99999.0    0.00      39    69.4
 209    5:40   64.7    30    3.8   238      5.9  99999.0    0.00      68    69.3
 209    5:50   67.1    28    2.6   235      5.1  99999.0    0.00     105    69.3
 209    6:00   69.0    26    1.7   220      4.2  99999.0    0.00     104    69.2
 209    6:10   69.5    28    2.2   236      4.0  99999.0    0.00      96    69.2
 209    6:20   69.5    30    1.2   246      4.7  99999.0    0.00     155    69.1
 209    6:30   70.5    27    3.5   245      7.5  99999.0    0.00     106    69.1
 209    6:40   70.5    29    4.1   197      6.9  99999.0    0.00     156    69.0
 209    6:50   69.8    31    2.3    92      4.2  99999.0    0.00     234    69.0
 209    7:00   71.5    28    1.5    80      3.0  99999.0    0.00     261    68.9
 209    7:10   73.7    29    1.4   329      2.8  99999.0    0.00     379    68.9
 209    7:20   74.5    26    2.4    10      4.5  99999.0    0.00     371    68.9
 209    7:30   74.9    27    3.0   346      4.3  99999.0    0.00     442    68.8
 209    7:40   75.0    26    3.1   356      5.0  99999.0    0.00     456    68.8
 209    7:50   76.0    26    2.2   337      4.5  99999.0    0.00     508    68.8

Return to South Reno, Nevada graphs page.


Western Regional Climate Center,wrcc@dri.edu